createdAt,value
2023-10-27T00:00:04.417Z,6.97
2023-10-27T00:02:32.826Z,6.25
2023-10-27T00:04:59.338Z,6.30
2023-10-27T00:07:25.808Z,8.32
2023-10-27T00:09:52.744Z,6.50
2023-10-27T00:12:19.223Z,6.53
2023-10-27T00:14:46.382Z,5.57
2023-10-27T00:17:16.108Z,5.88
2023-10-27T00:19:43.256Z,6.38
2023-10-27T00:22:09.930Z,7.32
2023-10-27T00:24:36.366Z,8.90
2023-10-27T00:27:02.888Z,7.18
2023-10-27T00:29:29.859Z,6.10
2023-10-27T00:34:23.265Z,7.20
2023-10-27T00:36:49.848Z,6.22
2023-10-27T00:39:16.326Z,7.63
2023-10-27T00:41:43.289Z,5.72
2023-10-27T00:46:37.283Z,7.68
2023-10-27T00:49:03.923Z,6.10
2023-10-27T00:51:30.583Z,5.97
2023-10-27T00:53:58.180Z,6.55
2023-10-27T00:56:27.080Z,7.88
2023-10-27T00:58:54.037Z,5.78
2023-10-27T01:03:48.020Z,7.65
2023-10-27T01:06:15.560Z,7.70
2023-10-27T01:08:42.748Z,7.47
2023-10-27T01:11:10.023Z,9.93
2023-10-27T01:13:36.528Z,8.70
2023-10-27T01:16:03.130Z,8.68
2023-10-27T01:18:30.209Z,8.27
2023-10-27T01:20:56.740Z,6.55
2023-10-27T01:23:23.164Z,7.68
2023-10-27T01:25:50.145Z,10.90
2023-10-27T01:30:43.671Z,6.22
2023-10-27T01:33:10.166Z,6.45
2023-10-27T01:35:37.710Z,6.90
2023-10-27T01:38:04.209Z,7.18
2023-10-27T01:40:31.090Z,7.05
2023-10-27T01:42:57.652Z,7.85
2023-10-27T01:45:24.145Z,6.70
2023-10-27T01:47:51.523Z,7.25
2023-10-27T01:50:18.087Z,9.13
2023-10-27T01:52:44.910Z,13.43
2023-10-27T01:55:11.351Z,9.00
2023-10-27T01:57:38.686Z,11.68
2023-10-27T02:00:05.795Z,5.75
2023-10-27T02:02:32.275Z,10.02
2023-10-27T02:07:40.669Z,6.43
2023-10-27T02:12:36.876Z,6.68
2023-10-27T02:15:04.216Z,6.03
2023-10-27T02:17:32.012Z,7.97
2023-10-27T02:19:59.072Z,7.28
2023-10-27T02:24:52.179Z,5.78
2023-10-27T02:27:18.972Z,6.45
2023-10-27T02:29:45.746Z,7.95
2023-10-27T02:32:12.608Z,5.65
2023-10-27T02:34:39.193Z,5.97
2023-10-27T02:37:06.286Z,9.15
2023-10-27T02:39:33.300Z,5.85
2023-10-27T02:44:26.756Z,6.53
2023-10-27T02:46:53.643Z,6.60
2023-10-27T02:51:46.653Z,5.80
2023-10-27T02:54:13.224Z,5.40
2023-10-27T02:56:39.698Z,5.93
2023-10-27T02:59:07.388Z,7.95
2023-10-27T03:01:33.902Z,7.10
2023-10-27T03:04:00.987Z,6.78
2023-10-27T03:06:27.987Z,6.00
2023-10-27T03:11:21.354Z,5.32
2023-10-27T03:13:47.835Z,6.43
2023-10-27T03:16:17.999Z,6.43
2023-10-27T03:18:44.702Z,6.97
2023-10-27T03:21:11.850Z,7.82
2023-10-27T03:26:05.247Z,6.88
2023-10-27T03:30:59.299Z,7.30
2023-10-27T03:33:26.336Z,7.60
2023-10-27T03:35:52.786Z,6.15
2023-10-27T03:38:19.759Z,5.55
2023-10-27T03:43:16.548Z,8.88
2023-10-27T03:45:43.162Z,6.13
2023-10-27T03:48:10.519Z,4.32
2023-10-27T03:50:37.738Z,7.40
2023-10-27T03:53:04.260Z,6.15
2023-10-27T03:55:31.519Z,7.63
2023-10-27T03:58:14.315Z,7.45
2023-10-27T04:00:41.360Z,7.22
2023-10-27T04:08:01.321Z,8.38
2023-10-27T04:10:28.028Z,5.28
2023-10-27T04:12:54.957Z,5.30
2023-10-27T04:17:48.380Z,6.38
2023-10-27T04:22:41.774Z,6.90
2023-10-27T04:30:05.281Z,7.88
2023-10-27T04:32:32.796Z,9.50
2023-10-27T04:34:59.797Z,8.57
2023-10-27T04:42:35.762Z,9.90
2023-10-27T04:47:30.610Z,10.32
2023-10-27T04:49:57.112Z,7.65
2023-10-27T04:52:24.228Z,7.60
2023-10-27T04:54:50.752Z,6.80
2023-10-27T04:57:17.934Z,7.90
2023-10-27T04:59:44.620Z,8.65
2023-10-27T05:02:12.011Z,7.60
2023-10-27T05:04:38.535Z,8.75
2023-10-27T05:07:06.957Z,8.30
2023-10-27T05:09:35.399Z,10.77
2023-10-27T05:12:04.030Z,9.90
2023-10-27T05:14:30.651Z,8.02
2023-10-27T05:16:57.545Z,9.07
2023-10-27T05:19:24.666Z,9.20
2023-10-27T05:21:51.332Z,8.88
2023-10-27T05:24:18.568Z,9.88
2023-10-27T05:26:45.556Z,9.68
2023-10-27T05:31:43.092Z,12.02
2023-10-27T05:34:10.027Z,10.70
2023-10-27T05:39:03.416Z,13.27
2023-10-27T05:44:12.008Z,12.77
2023-10-27T05:46:39.039Z,12.23
2023-10-27T05:49:05.906Z,11.05
2023-10-27T05:51:35.052Z,12.73
2023-10-27T05:54:02.226Z,11.45
2023-10-27T05:56:29.494Z,12.35
2023-10-27T05:58:56.170Z,13.43
2023-10-27T06:01:23.380Z,15.25
2023-10-27T06:03:50.612Z,16.05
2023-10-27T06:06:17.753Z,17.98
2023-10-27T06:08:45.496Z,18.25
2023-10-27T06:11:12.657Z,18.23
2023-10-27T06:13:40.007Z,19.95
2023-10-27T06:16:07.398Z,18.55
2023-10-27T06:18:34.113Z,21.45
2023-10-27T06:21:00.766Z,21.40
2023-10-27T06:23:28.016Z,19.88
2023-10-27T06:25:54.574Z,22.85
2023-10-27T06:28:21.605Z,21.40
2023-10-27T06:30:48.077Z,24.92
2023-10-27T06:33:14.992Z,22.92
2023-10-27T06:38:07.928Z,26.85
2023-10-27T06:40:34.448Z,26.95
2023-10-27T06:43:00.954Z,26.27
2023-10-27T06:45:28.547Z,25.52
2023-10-27T06:47:55.107Z,27.10
2023-10-27T06:50:22.257Z,24.88
2023-10-27T06:52:48.776Z,29.85
2023-10-27T06:55:16.018Z,31.30
2023-10-27T06:57:42.518Z,28.67
2023-10-27T07:00:09.391Z,30.77
2023-10-27T07:05:23.034Z,28.33
2023-10-27T07:07:53.044Z,30.70
2023-10-27T07:10:20.031Z,35.72
2023-10-27T07:15:14.304Z,35.38
2023-10-27T07:17:44.472Z,39.03
2023-10-27T07:20:11.681Z,38.92
2023-10-27T07:22:38.468Z,43.42
2023-10-27T07:25:06.600Z,41.83
2023-10-27T07:27:35.101Z,45.92
2023-10-27T07:30:01.733Z,44.00
2023-10-27T07:32:28.936Z,48.42
2023-10-27T07:34:55.992Z,51.63
2023-10-27T07:39:51.895Z,51.22
2023-10-27T07:42:18.419Z,57.40
2023-10-27T07:44:45.714Z,63.45
2023-10-27T07:47:12.826Z,63.17
2023-10-27T08:00:27.869Z,61.00
2023-10-27T08:02:54.381Z,68.47
2023-10-27T08:05:20.912Z,66.03
2023-10-27T08:07:47.951Z,63.88
2023-10-27T08:10:14.457Z,63.03
2023-10-27T08:12:41.588Z,61.33
2023-10-27T08:15:08.194Z,66.28
2023-10-27T08:17:35.685Z,74.45
2023-10-27T08:20:03.322Z,60.60
2023-10-27T08:22:30.603Z,70.10
2023-10-27T08:24:57.405Z,67.03
2023-10-27T08:29:55.118Z,65.15
2023-10-27T08:32:22.955Z,65.25
2023-10-27T08:34:50.618Z,61.70
2023-10-27T08:37:19.398Z,74.88
2023-10-27T08:39:47.441Z,68.35
2023-10-27T08:42:14.286Z,68.78
2023-10-27T08:44:45.113Z,62.70
2023-10-27T08:47:14.321Z,70.93
2023-10-27T08:49:40.974Z,76.03
2023-10-27T08:52:10.322Z,88.40
2023-10-27T08:54:42.900Z,75.57
2023-10-27T08:57:09.736Z,67.93
2023-10-27T08:59:37.035Z,69.85
2023-10-27T09:02:06.208Z,84.60
2023-10-27T09:04:35.062Z,71.68
2023-10-27T09:07:01.672Z,67.25
2023-10-27T09:09:28.847Z,72.20
2023-10-27T09:11:55.356Z,67.78
2023-10-27T09:14:27.628Z,77.68
2023-10-27T09:17:14.514Z,71.78
2023-10-27T09:19:41.377Z,69.43
2023-10-27T09:22:19.785Z,68.68
2023-10-27T09:24:47.800Z,64.70
2023-10-27T09:27:14.826Z,81.47
2023-10-27T09:32:27.666Z,67.60
2023-10-27T09:35:11.689Z,67.72
2023-10-27T09:37:42.625Z,57.78
2023-10-27T09:40:14.191Z,68.65
2023-10-27T09:42:41.276Z,55.88
2023-10-27T09:47:43.153Z,64.40
2023-10-27T09:50:20.879Z,66.25
2023-10-27T09:52:50.075Z,58.00
2023-10-27T09:55:21.416Z,72.50
2023-10-27T09:57:48.944Z,73.25
2023-10-27T10:00:22.484Z,72.70
2023-10-27T10:02:49.312Z,85.35
2023-10-27T10:05:16.726Z,78.60
2023-10-27T10:07:45.601Z,49.72
2023-10-27T10:10:22.485Z,53.67
2023-10-27T10:13:13.438Z,73.82
2023-10-27T10:15:45.663Z,44.90
2023-10-27T10:18:21.319Z,56.20
2023-10-27T10:20:54.180Z,71.32
2023-10-27T10:23:20.786Z,67.30
2023-10-27T10:25:52.035Z,72.28
2023-10-27T10:28:18.495Z,79.07
2023-10-27T10:30:47.005Z,68.32
2023-10-27T10:33:26.223Z,50.47
2023-10-27T10:35:53.678Z,77.13
2023-10-27T10:38:23.168Z,74.10
2023-10-27T10:40:58.326Z,63.03
2023-10-27T10:43:26.602Z,57.13
2023-10-27T10:46:04.396Z,58.10
2023-10-27T10:48:33.423Z,42.60
2023-10-27T10:51:05.841Z,55.47
2023-10-27T10:53:33.316Z,49.60
2023-10-27T10:56:01.917Z,61.17
2023-10-27T10:58:37.659Z,57.13
2023-10-27T11:01:05.282Z,58.03
2023-10-27T11:03:34.748Z,54.65
2023-10-27T11:06:04.691Z,39.17
2023-10-27T11:08:35.957Z,44.33
2023-10-27T11:11:04.897Z,39.03
2023-10-27T11:13:33.241Z,46.33
2023-10-27T11:16:04.512Z,49.22
2023-10-27T11:18:34.023Z,43.13
2023-10-27T11:21:00.594Z,43.63
2023-10-27T11:23:32.132Z,34.67
2023-10-27T11:26:06.399Z,34.63
2023-10-27T11:28:41.219Z,29.95
2023-10-27T11:31:20.831Z,37.70
2023-10-27T11:34:05.618Z,25.30
2023-10-27T11:36:34.755Z,31.38
2023-10-27T11:39:15.378Z,26.35
2023-10-27T11:41:44.127Z,24.67
2023-10-27T11:44:10.638Z,19.30
2023-10-27T11:46:38.047Z,16.70
2023-10-27T11:49:04.557Z,21.35
2023-10-27T11:51:31.233Z,22.38
2023-10-27T11:53:59.013Z,20.90
2023-10-27T11:56:25.543Z,21.95
2023-10-27T11:58:52.701Z,17.83
2023-10-27T12:01:20.849Z,23.23
2023-10-27T12:03:48.413Z,15.50
2023-10-27T12:06:15.147Z,19.52
2023-10-27T12:08:42.100Z,17.02
2023-10-27T12:13:35.683Z,24.83
2023-10-27T12:16:02.884Z,17.45
2023-10-27T12:18:29.472Z,16.30
2023-10-27T12:20:55.980Z,16.58
2023-10-27T12:23:22.478Z,25.63
2023-10-27T12:25:49.070Z,20.13
2023-10-27T12:28:16.116Z,23.08
2023-10-27T12:30:42.636Z,18.02
2023-10-27T12:33:11.073Z,21.02
2023-10-27T12:35:39.009Z,19.15
2023-10-27T12:38:06.525Z,19.83
2023-10-27T12:40:35.415Z,18.80
2023-10-27T12:43:04.620Z,14.70
2023-10-27T12:45:31.126Z,11.52
2023-10-27T12:47:57.798Z,11.25
2023-10-27T12:50:25.162Z,13.52
2023-10-27T12:52:51.787Z,16.88
2023-10-27T12:55:18.354Z,11.95
2023-10-27T12:57:46.766Z,11.55
2023-10-27T13:00:22.264Z,11.27
2023-10-27T13:02:48.824Z,12.45
2023-10-27T13:05:18.304Z,13.05
2023-10-27T13:07:45.657Z,11.63
2023-10-27T13:10:12.559Z,12.63
2023-10-27T13:15:10.823Z,14.02
2023-10-27T13:17:41.506Z,12.25
2023-10-27T13:20:12.740Z,15.93
2023-10-27T13:22:39.960Z,13.98
2023-10-27T13:25:06.992Z,15.40
2023-10-27T13:30:03.491Z,14.52
2023-10-27T13:32:30.188Z,15.90
2023-10-27T13:34:58.542Z,16.80
2023-10-27T13:37:26.242Z,15.98
2023-10-27T13:39:52.728Z,19.83
2023-10-27T13:42:19.822Z,18.30
2023-10-27T13:44:46.489Z,21.33
2023-10-27T13:47:13.761Z,21.88
2023-10-27T13:49:40.852Z,24.77
2023-10-27T13:52:08.641Z,22.45
2023-10-27T13:54:36.656Z,24.10
2023-10-27T13:57:03.264Z,26.95
2023-10-27T13:59:31.049Z,20.10
2023-10-27T14:01:58.899Z,45.78
2023-10-27T14:04:28.719Z,31.40
2023-10-27T14:06:58.803Z,27.27
2023-10-27T14:09:30.416Z,28.45
2023-10-27T14:12:01.503Z,31.02
2023-10-27T14:14:28.003Z,29.27
2023-10-27T14:16:54.501Z,40.05
2023-10-27T14:19:21.671Z,26.58
2023-10-27T14:21:49.555Z,26.30
2023-10-27T14:24:16.937Z,37.78
2023-10-27T14:26:43.461Z,33.25
2023-10-27T14:29:10.858Z,26.77
2023-10-27T14:31:37.820Z,30.63
2023-10-27T14:36:32.030Z,30.55
2023-10-27T14:38:58.526Z,32.65
2023-10-27T14:41:26.323Z,28.17
2023-10-27T14:43:53.315Z,37.63
2023-10-27T14:48:50.319Z,39.03
2023-10-27T14:51:20.178Z,28.25
2023-10-27T14:53:47.758Z,33.50
2023-10-27T14:56:14.310Z,46.42
2023-10-27T14:58:41.320Z,51.13
2023-10-27T15:01:09.030Z,35.80
2023-10-27T15:03:39.349Z,33.90
2023-10-27T15:06:07.444Z,32.33
2023-10-27T15:08:34.696Z,31.92
2023-10-27T15:11:01.721Z,38.97
2023-10-27T15:16:14.960Z,35.90
2023-10-27T15:18:43.068Z,39.92
2023-10-27T15:21:12.621Z,38.00
2023-10-27T15:23:39.985Z,43.47
2023-10-27T15:26:08.051Z,39.15
2023-10-27T15:28:35.705Z,47.53
2023-10-27T15:31:04.366Z,40.80
2023-10-27T15:33:32.563Z,37.75
2023-10-27T15:36:08.538Z,40.90
2023-10-27T15:38:36.632Z,37.10
2023-10-27T15:41:04.650Z,37.67
2023-10-27T15:43:32.193Z,43.60
2023-10-27T15:46:07.759Z,52.53
2023-10-27T15:48:34.346Z,43.38
2023-10-27T15:51:04.667Z,37.67
2023-10-27T15:53:34.291Z,32.80
2023-10-27T15:56:02.078Z,44.60
2023-10-27T15:58:28.631Z,56.30
2023-10-27T16:00:56.886Z,49.95
2023-10-27T16:03:25.789Z,45.15
2023-10-27T16:05:53.344Z,45.08
2023-10-27T16:08:20.076Z,37.25
2023-10-27T16:10:46.579Z,56.20
2023-10-27T16:13:13.266Z,63.13
2023-10-27T16:15:40.278Z,48.65
2023-10-27T16:20:36.696Z,64.35
2023-10-27T16:23:04.346Z,41.35
2023-10-27T16:25:31.733Z,65.18
2023-10-27T16:27:58.197Z,34.15
2023-10-27T16:30:24.795Z,54.88
2023-10-27T16:32:51.912Z,52.47
2023-10-27T16:35:19.210Z,44.15
2023-10-27T16:37:46.830Z,50.33
2023-10-27T16:40:14.197Z,61.70
2023-10-27T16:42:41.397Z,51.33
2023-10-27T16:45:08.308Z,72.63
2023-10-27T16:47:38.678Z,52.47
2023-10-27T16:50:06.066Z,68.78
2023-10-27T16:52:33.107Z,63.28
2023-10-27T16:55:00.912Z,69.30
2023-10-27T16:57:30.259Z,90.15
2023-10-27T16:59:57.559Z,74.72
2023-10-27T17:02:25.783Z,64.15
2023-10-27T17:04:53.960Z,94.28
2023-10-27T17:07:21.635Z,84.65
2023-10-27T17:09:51.879Z,85.32
2023-10-27T17:12:22.529Z,85.93
2023-10-27T17:14:50.211Z,86.20
2023-10-27T17:17:17.277Z,63.40
2023-10-27T17:22:12.826Z,89.93
2023-10-27T17:24:44.087Z,74.57
2023-10-27T17:27:12.567Z,90.93
2023-10-27T17:29:41.181Z,106.55
2023-10-27T17:32:10.464Z,112.82
2023-10-27T17:34:38.446Z,121.25
2023-10-27T17:37:05.826Z,120.68
2023-10-27T17:39:32.697Z,105.93
2023-10-27T17:41:59.861Z,92.38
2023-10-27T17:44:26.331Z,102.38
2023-10-27T17:46:54.479Z,97.10
2023-10-27T17:49:22.542Z,118.30
2023-10-27T17:51:50.129Z,100.28
2023-10-27T17:54:16.643Z,83.93
2023-10-27T17:56:43.404Z,138.90
2023-10-27T17:59:10.407Z,145.55
2023-10-27T18:01:37.183Z,103.00
2023-10-27T18:04:04.715Z,104.72
2023-10-27T18:06:31.805Z,106.72
2023-10-27T18:08:58.971Z,144.02
2023-10-27T18:11:25.711Z,135.00
2023-10-27T18:16:40.316Z,147.80
2023-10-27T18:19:17.416Z,121.93
2023-10-27T18:21:52.259Z,142.68
2023-10-27T18:24:34.570Z,136.52
2023-10-27T18:27:10.761Z,85.47
2023-10-27T18:30:01.257Z,112.65
2023-10-27T18:32:29.643Z,117.35
2023-10-27T18:34:58.074Z,153.38
2023-10-27T18:37:27.031Z,138.80
2023-10-27T18:43:32.120Z,143.73
2023-10-27T18:46:37.403Z,163.57
2023-10-27T18:52:58.914Z,135.63
2023-10-27T18:55:43.354Z,136.32
2023-10-27T18:58:09.947Z,58.08
2023-10-27T19:00:39.876Z,115.40
2023-10-27T19:03:09.493Z,116.35
2023-10-27T19:05:39.332Z,89.40
2023-10-27T19:08:05.978Z,98.70
2023-10-27T19:10:35.644Z,96.38
2023-10-27T19:13:03.422Z,105.32
2023-10-27T19:15:34.483Z,93.70
2023-10-27T19:18:03.099Z,115.25
2023-10-27T19:20:29.848Z,148.48
2023-10-27T19:22:57.606Z,123.07
2023-10-27T19:25:25.590Z,132.95
2023-10-27T19:27:52.506Z,147.75
2023-10-27T19:30:19.031Z,178.57
2023-10-27T19:32:47.139Z,134.32
2023-10-27T19:35:16.637Z,130.55
2023-10-27T19:37:43.731Z,94.10
2023-10-27T19:40:10.862Z,83.22
2023-10-27T19:42:37.945Z,92.63
2023-10-27T19:45:04.806Z,135.80
2023-10-27T19:47:31.320Z,77.03
2023-10-27T19:50:01.152Z,140.40
2023-10-27T19:52:33.582Z,101.32
2023-10-27T19:55:01.107Z,156.40
2023-10-27T19:57:28.916Z,74.82
2023-10-27T19:59:56.858Z,79.00
2023-10-27T20:02:23.748Z,109.72
2023-10-27T20:04:50.267Z,139.40
2023-10-27T20:07:17.386Z,89.10
2023-10-27T20:12:11.923Z,97.07
2023-10-27T20:14:38.340Z,106.20
2023-10-27T20:17:07.986Z,96.00
2023-10-27T20:19:36.205Z,87.72
2023-10-27T20:22:04.392Z,125.43
2023-10-27T20:24:30.858Z,87.85
2023-10-27T20:26:58.273Z,88.25
2023-10-27T20:29:24.747Z,106.65
2023-10-27T20:31:51.380Z,76.43
2023-10-27T20:34:18.450Z,96.55
2023-10-27T20:36:45.352Z,82.85
2023-10-27T20:39:12.523Z,103.07
2023-10-27T20:41:38.955Z,97.40
2023-10-27T20:44:06.218Z,91.22
2023-10-27T20:46:32.735Z,129.15
2023-10-27T20:48:59.676Z,95.22
2023-10-27T20:53:52.574Z,93.80
2023-10-27T20:56:19.592Z,84.72
2023-10-27T21:01:12.815Z,95.82
2023-10-27T21:03:39.293Z,96.53
2023-10-27T21:06:09.593Z,100.85
2023-10-27T21:08:37.738Z,78.65
2023-10-27T21:11:05.788Z,72.70
2023-10-27T21:13:33.026Z,76.95
2023-10-27T21:16:02.319Z,98.63
2023-10-27T21:18:28.799Z,60.30
2023-10-27T21:20:55.384Z,84.45
2023-10-27T21:23:23.341Z,61.58
2023-10-27T21:25:49.959Z,80.40
2023-10-27T21:28:16.429Z,86.05
2023-10-27T21:30:43.346Z,49.33
2023-10-27T21:35:38.249Z,76.55
2023-10-27T21:38:05.181Z,65.38
2023-10-27T21:42:58.838Z,48.70
2023-10-27T21:45:25.999Z,56.15
2023-10-27T21:47:53.663Z,66.47
2023-10-27T21:50:20.183Z,51.95
2023-10-27T21:52:47.423Z,47.40
2023-10-27T21:55:13.963Z,47.35
2023-10-27T21:57:40.944Z,34.10
2023-10-27T22:02:56.928Z,27.83
2023-10-27T22:05:25.651Z,26.73
2023-10-27T22:08:05.045Z,26.30
2023-10-27T22:10:50.011Z,39.10
2023-10-27T22:21:32.458Z,37.45
2023-10-27T22:24:02.123Z,32.30
2023-10-27T22:26:28.988Z,39.65
2023-10-27T22:28:56.324Z,29.70
2023-10-27T22:31:22.910Z,43.42
2023-10-27T22:33:49.822Z,27.73
2023-10-27T22:36:18.784Z,25.40
2023-10-27T22:38:45.708Z,29.02
2023-10-27T22:41:15.687Z,26.85
2023-10-27T22:43:44.938Z,19.58
2023-10-27T22:46:13.554Z,18.60
2023-10-27T22:48:40.162Z,21.38
2023-10-27T22:51:11.570Z,13.05
2023-10-27T22:53:38.601Z,10.80
2023-10-27T22:58:35.420Z,8.63
2023-10-27T23:01:02.497Z,8.85
2023-10-27T23:03:29.789Z,12.45
2023-10-27T23:05:56.837Z,8.52
2023-10-27T23:10:49.739Z,9.88
2023-10-27T23:13:18.294Z,12.48
2023-10-27T23:15:45.546Z,11.75
2023-10-27T23:18:12.867Z,10.50
2023-10-27T23:20:39.513Z,11.40
2023-10-27T23:23:06.696Z,8.10
2023-10-27T23:25:34.662Z,9.55
2023-10-27T23:28:01.731Z,11.18
2023-10-27T23:32:56.499Z,11.82
2023-10-27T23:35:26.559Z,10.77
2023-10-27T23:37:53.041Z,5.68
2023-10-27T23:40:20.581Z,5.93
2023-10-27T23:42:50.567Z,8.00
2023-10-27T23:45:18.491Z,7.10
2023-10-27T23:47:45.015Z,9.60
2023-10-27T23:50:12.014Z,10.30
2023-10-27T23:55:06.756Z,5.70
2023-10-27T23:57:33.285Z,5.38
2023-10-27T23:59:59.708Z,5.53
